sensor_id;sensor_type;location;lat;lon;timestamp;temperature;humidity
38456;DHT22;24237;50.106;20.014;2024-03-23T00:55:56;13.00;99.90
38456;DHT22;24237;50.106;20.014;2024-03-23T00:58:22;13.00;99.90
38456;DHT22;24237;50.106;20.014;2024-03-23T01:00:47;12.90;99.90
38456;DHT22;24237;50.106;20.014;2024-03-23T01:03:13;13.10;9.00
38456;DHT22;24237;50.106;20.014;2024-03-23T01:05:38;13.10;87.30
38456;DHT22;24237;50.106;20.014;2024-03-23T01:08:04;13.00;99.90
38456;DHT22;24237;50.106;20.014;2024-03-23T01:10:30;13.00;99.90
38456;DHT22;24237;50.106;20.014;2024-03-23T01:12:56;13.10;48.90
38456;DHT22;24237;50.106;20.014;2024-03-23T01:15:21;13.00;1.00
38456;DHT22;24237;50.106;20.014;2024-03-23T01:17:47;13.00;40.20
38456;DHT22;24237;50.106;20.014;2024-03-23T01:20:13;13.00;99.90
38456;DHT22;24237;50.106;20.014;2024-03-23T01:22:38;13.00;99.90
38456;DHT22;24237;50.106;20.014;2024-03-23T01:25:04;13.00;99.90
38456;DHT22;24237;50.106;20.014;2024-03-23T01:27:30;12.90;99.90
38456;DHT22;24237;50.106;20.014;2024-03-23T01:29:55;13.00;48.90
38456;DHT22;24237;50.106;20.014;2024-03-23T01:32:21;13.00;99.90
38456;DHT22;24237;50.106;20.014;2024-03-23T01:34:48;13.20;99.90
38456;DHT22;24237;50.106;20.014;2024-03-23T01:37:13;13.20;99.90
38456;DHT22;24237;50.106;20.014;2024-03-23T01:39:39;13.10;99.90
38456;DHT22;24237;50.106;20.014;2024-03-23T01:42:05;13.10;1.00
38456;DHT22;24237;50.106;20.014;2024-03-23T01:44:31;13.20;99.90
38456;DHT22;24237;50.106;20.014;2024-03-23T01:46:56;13.30;99.90
38456;DHT22;24237;50.106;20.014;2024-03-23T01:49:22;13.40;36.30
38456;DHT22;24237;50.106;20.014;2024-03-23T01:51:47;13.20;1.00
38456;DHT22;24237;50.106;20.014;2024-03-23T01:54:13;13.10;42.40
38456;DHT22;24237;50.106;20.014;2024-03-23T01:56:39;13.00;1.00
38456;DHT22;24237;50.106;20.014;2024-03-23T01:59:05;12.90;20.80
38456;DHT22;24237;50.106;20.014;2024-03-23T02:01:31;12.90;1.00
38456;DHT22;24237;50.106;20.014;2024-03-23T02:03:58;12.80;99.90
38456;DHT22;24237;50.106;20.014;2024-03-23T02:06:27;12.80;1.00
38456;DHT22;24237;50.106;20.014;2024-03-23T02:08:53;12.80;1.00
38456;DHT22;24237;50.106;20.014;2024-03-23T02:11:19;12.80;1.00
38456;DHT22;24237;50.106;20.014;2024-03-23T02:13:45;12.90;1.00
38456;DHT22;24237;50.106;20.014;2024-03-23T02:16:10;12.80;99.90
38456;DHT22;24237;50.106;20.014;2024-03-23T02:18:36;12.80;99.90
38456;DHT22;24237;50.106;20.014;2024-03-23T02:21:02;12.90;99.90
38456;DHT22;24237;50.106;20.014;2024-03-23T02:23:28;13.00;99.90
38456;DHT22;24237;50.106;20.014;2024-03-23T02:25:54;13.00;99.90
38456;DHT22;24237;50.106;20.014;2024-03-23T02:28:20;13.00;99.90
38456;DHT22;24237;50.106;20.014;2024-03-23T02:30:45;13.00;99.90
38456;DHT22;24237;50.106;20.014;2024-03-23T02:33:11;13.00;99.90
38456;DHT22;24237;50.106;20.014;2024-03-23T02:35:37;13.00;95.00
38456;DHT22;24237;50.106;20.014;2024-03-23T02:38:02;13.00;1.00
38456;DHT22;24237;50.106;20.014;2024-03-23T02:40:28;13.00;1.00
38456;DHT22;24237;50.106;20.014;2024-03-23T02:42:54;13.00;50.10
38456;DHT22;24237;50.106;20.014;2024-03-23T02:45:20;13.10;99.90
38456;DHT22;24237;50.106;20.014;2024-03-23T02:47:45;13.20;99.90
38456;DHT22;24237;50.106;20.014;2024-03-23T02:50:11;13.10;99.90
38456;DHT22;24237;50.106;20.014;2024-03-23T02:52:37;13.00;99.90
38456;DHT22;24237;50.106;20.014;2024-03-23T02:55:03;12.90;1.00
38456;DHT22;24237;50.106;20.014;2024-03-23T02:57:29;12.80;1.00
38456;DHT22;24237;50.106;20.014;2024-03-23T02:59:55;12.80;1.00
38456;DHT22;24237;50.106;20.014;2024-03-23T03:02:24;12.70;99.90
38456;DHT22;24237;50.106;20.014;2024-03-23T03:04:49;12.70;18.50
38456;DHT22;24237;50.106;20.014;2024-03-23T03:07:15;12.70;99.90
38456;DHT22;24237;50.106;20.014;2024-03-23T03:09:41;12.70;23.80
38456;DHT22;24237;50.106;20.014;2024-03-23T03:12:07;12.80;99.90
38456;DHT22;24237;50.106;20.014;2024-03-23T03:14:33;12.80;99.90
38456;DHT22;24237;50.106;20.014;2024-03-23T03:16:59;12.70;99.90
38456;DHT22;24237;50.106;20.014;2024-03-23T03:19:24;12.70;99.90
38456;DHT22;24237;50.106;20.014;2024-03-23T03:21:50;12.60;99.90
38456;DHT22;24237;50.106;20.014;2024-03-23T03:24:16;12.60;97.20
38456;DHT22;24237;50.106;20.014;2024-03-23T03:26:42;12.70;16.80
38456;DHT22;24237;50.106;20.014;2024-03-23T03:29:08;12.60;88.20
38456;DHT22;24237;50.106;20.014;2024-03-23T03:31:33;12.60;93.50
38456;DHT22;24237;50.106;20.014;2024-03-23T03:33:59;12.60;99.90
38456;DHT22;24237;50.106;20.014;2024-03-23T03:36:25;12.60;1.00
38456;DHT22;24237;50.106;20.014;2024-03-23T03:38:50;12.70;2.10
38456;DHT22;24237;50.106;20.014;2024-03-23T03:41:16;12.60;33.60
38456;DHT22;24237;50.106;20.014;2024-03-23T03:43:42;12.50;1.00
38456;DHT22;24237;50.106;20.014;2024-03-23T03:46:07;12.50;20.20
38456;DHT22;24237;50.106;20.014;2024-03-23T03:48:33;12.50;58.10
38456;DHT22;24237;50.106;20.014;2024-03-23T03:50:59;12.50;2.30
38456;DHT22;24237;50.106;20.014;2024-03-23T03:53:25;12.50;99.90
38456;DHT22;24237;50.106;20.014;2024-03-23T03:55:51;12.50;99.90
38456;DHT22;24237;50.106;20.014;2024-03-23T03:58:17;12.50;99.90
38456;DHT22;24237;50.106;20.014;2024-03-23T04:00:43;12.40;99.90
38456;DHT22;24237;50.106;20.014;2024-03-23T04:03:08;12.40;99.90
38456;DHT22;24237;50.106;20.014;2024-03-23T04:05:34;12.40;99.90
38456;DHT22;24237;50.106;20.014;2024-03-23T04:07:59;12.40;99.90
38456;DHT22;24237;50.106;20.014;2024-03-23T04:10:25;12.60;1.00
38456;DHT22;24237;50.106;20.014;2024-03-23T04:12:52;12.60;99.90
38456;DHT22;24237;50.106;20.014;2024-03-23T04:15:19;12.50;99.90
38456;DHT22;24237;50.106;20.014;2024-03-23T04:17:45;12.60;1.00
38456;DHT22;24237;50.106;20.014;2024-03-23T04:20:11;12.50;1.00
38456;DHT22;24237;50.106;20.014;2024-03-23T04:22:38;12.50;1.00
38456;DHT22;24237;50.106;20.014;2024-03-23T04:25:05;12.50;17.20
38456;DHT22;24237;50.106;20.014;2024-03-23T04:27:39;12.50;99.90
38456;DHT22;24237;50.106;20.014;2024-03-23T04:30:06;12.40;99.90
38456;DHT22;24237;50.106;20.014;2024-03-23T04:32:39;12.60;99.90
38456;DHT22;24237;50.106;20.014;2024-03-23T04:35:04;12.50;99.90
38456;DHT22;24237;50.106;20.014;2024-03-23T04:37:37;12.50;1.00
38456;DHT22;24237;50.106;20.014;2024-03-23T04:40:03;12.40;1.00
38456;DHT22;24237;50.106;20.014;2024-03-23T04:42:30;12.40;68.00
38456;DHT22;24237;50.106;20.014;2024-03-23T04:44:56;12.40;99.90
38456;DHT22;24237;50.106;20.014;2024-03-23T04:47:22;12.30;99.90
38456;DHT22;24237;50.106;20.014;2024-03-23T04:49:48;12.30;1.00
38456;DHT22;24237;50.106;20.014;2024-03-23T04:52:14;12.20;1.00
38456;DHT22;24237;50.106;20.014;2024-03-23T04:54:39;12.30;1.80
38456;DHT22;24237;50.106;20.014;2024-03-23T04:57:06;12.50;1.00
38456;DHT22;24237;50.106;20.014;2024-03-23T04:59:31;12.40;11.60
38456;DHT22;24237;50.106;20.014;2024-03-23T05:01:57;12.20;99.90
38456;DHT22;24237;50.106;20.014;2024-03-23T05:04:23;12.00;99.90
38456;DHT22;24237;50.106;20.014;2024-03-23T05:06:48;12.00;99.90
38456;DHT22;24237;50.106;20.014;2024-03-23T05:09:14;12.10;99.90
38456;DHT22;24237;50.106;20.014;2024-03-23T05:11:40;12.20;99.90
38456;DHT22;24237;50.106;20.014;2024-03-23T05:14:07;12.10;99.90
38456;DHT22;24237;50.106;20.014;2024-03-23T05:16:33;12.10;89.40
38456;DHT22;24237;50.106;20.014;2024-03-23T05:18:59;12.10;1.00
38456;DHT22;24237;50.106;20.014;2024-03-23T05:21:24;12.20;46.40
38456;DHT22;24237;50.106;20.014;2024-03-23T05:23:50;12.20;4.40
38456;DHT22;24237;50.106;20.014;2024-03-23T05:26:17;12.30;1.00
38456;DHT22;24237;50.106;20.014;2024-03-23T05:28:42;12.30;6.70
38456;DHT22;24237;50.106;20.014;2024-03-23T05:31:09;12.40;4.90
38456;DHT22;24237;50.106;20.014;2024-03-23T05:33:36;12.40;66.90
38456;DHT22;24237;50.106;20.014;2024-03-23T05:36:03;12.50;1.00
38456;DHT22;24237;50.106;20.014;2024-03-23T05:38:29;12.50;1.00
38456;DHT22;24237;50.106;20.014;2024-03-23T05:40:56;12.60;99.90
38456;DHT22;24237;50.106;20.014;2024-03-23T05:43:22;12.60;99.90
38456;DHT22;24237;50.106;20.014;2024-03-23T05:45:58;12.70;99.90
38456;DHT22;24237;50.106;20.014;2024-03-23T05:48:25;12.80;1.00
38456;DHT22;24237;50.106;20.014;2024-03-23T05:50:51;12.70;1.00
38456;DHT22;24237;50.106;20.014;2024-03-23T05:53:18;12.50;99.90
38456;DHT22;24237;50.106;20.014;2024-03-23T05:55:44;12.50;99.90
38456;DHT22;24237;50.106;20.014;2024-03-23T05:58:10;12.70;99.90
38456;DHT22;24237;50.106;20.014;2024-03-23T06:00:36;12.90;47.40
38456;DHT22;24237;50.106;20.014;2024-03-23T06:03:01;12.80;1.00
38456;DHT22;24237;50.106;20.014;2024-03-23T06:05:27;12.80;53.70
38456;DHT22;24237;50.106;20.014;2024-03-23T06:07:53;12.80;99.90
38456;DHT22;24237;50.106;20.014;2024-03-23T06:10:19;12.80;99.90
38456;DHT22;24237;50.106;20.014;2024-03-23T06:12:46;12.90;99.90
38456;DHT22;24237;50.106;20.014;2024-03-23T06:15:12;12.90;1.00
38456;DHT22;24237;50.106;20.014;2024-03-23T06:17:38;13.00;99.90
38456;DHT22;24237;50.106;20.014;2024-03-23T06:20:04;13.10;1.00
38456;DHT22;24237;50.106;20.014;2024-03-23T06:22:31;13.20;99.90
38456;DHT22;24237;50.106;20.014;2024-03-23T06:24:57;13.10;99.90
38456;DHT22;24237;50.106;20.014;2024-03-23T06:27:23;13.00;1.00
38456;DHT22;24237;50.106;20.014;2024-03-23T06:29:48;13.00;1.00
38456;DHT22;24237;50.106;20.014;2024-03-23T06:32:14;13.00;99.90
38456;DHT22;24237;50.106;20.014;2024-03-23T06:34:43;13.00;40.90
38456;DHT22;24237;50.106;20.014;2024-03-23T06:37:08;12.80;1.00
38456;DHT22;24237;50.106;20.014;2024-03-23T06:39:39;13.00;1.00
38456;DHT22;24237;50.106;20.014;2024-03-23T06:42:04;13.00;1.00
38456;DHT22;24237;50.106;20.014;2024-03-23T06:44:30;13.50;1.00
38456;DHT22;24237;50.106;20.014;2024-03-23T06:46:56;13.20;99.90
38456;DHT22;24237;50.106;20.014;2024-03-23T06:49:25;13.30;1.00
38456;DHT22;24237;50.106;20.014;2024-03-23T06:51:51;13.20;75.80
38456;DHT22;24237;50.106;20.014;2024-03-23T06:54:17;13.10;99.90
38456;DHT22;24237;50.106;20.014;2024-03-23T06:56:46;13.20;99.90
38456;DHT22;24237;50.106;20.014;2024-03-23T06:59:12;13.30;59.00
38456;DHT22;24237;50.106;20.014;2024-03-23T07:01:38;13.50;99.90
38456;DHT22;24237;50.106;20.014;2024-03-23T07:04:04;13.60;1.00
38456;DHT22;24237;50.106;20.014;2024-03-23T07:06:32;13.60;99.90
38456;DHT22;24237;50.106;20.014;2024-03-23T07:08:58;13.50;99.90
38456;DHT22;24237;50.106;20.014;2024-03-23T07:11:24;13.60;71.50
38456;DHT22;24237;50.106;20.014;2024-03-23T07:13:50;14.00;1.00
38456;DHT22;24237;50.106;20.014;2024-03-23T07:16:16;14.30;99.90
38456;DHT22;24237;50.106;20.014;2024-03-23T07:18:42;14.20;99.90
38456;DHT22;24237;50.106;20.014;2024-03-23T07:21:07;14.30;99.90
38456;DHT22;24237;50.106;20.014;2024-03-23T07:23:34;14.30;99.90
38456;DHT22;24237;50.106;20.014;2024-03-23T07:26:04;14.10;99.90
38456;DHT22;24237;50.106;20.014;2024-03-23T07:28:33;14.20;99.90
38456;DHT22;24237;50.106;20.014;2024-03-23T07:31:06;14.30;99.90
38456;DHT22;24237;50.106;20.014;2024-03-23T07:33:32;14.60;83.20
38456;DHT22;24237;50.106;20.014;2024-03-23T07:35:59;14.40;99.90
38456;DHT22;24237;50.106;20.014;2024-03-23T07:38:27;14.60;90.90
38456;DHT22;24237;50.106;20.014;2024-03-23T07:41:05;15.00;63.00
38456;DHT22;24237;50.106;20.014;2024-03-23T07:43:31;14.80;1.00
38456;DHT22;24237;50.106;20.014;2024-03-23T07:46:00;15.10;1.00
38456;DHT22;24237;50.106;20.014;2024-03-23T07:48:27;15.20;1.00
38456;DHT22;24237;50.106;20.014;2024-03-23T07:51:10;15.10;99.90
38456;DHT22;24237;50.106;20.014;2024-03-23T07:53:37;15.10;99.90
38456;DHT22;24237;50.106;20.014;2024-03-23T07:56:05;15.20;99.90
38456;DHT22;24237;50.106;20.014;2024-03-23T07:58:31;15.30;99.90
38456;DHT22;24237;50.106;20.014;2024-03-23T08:01:04;15.70;99.90
38456;DHT22;24237;50.106;20.014;2024-03-23T08:03:29;16.00;89.80
38456;DHT22;24237;50.106;20.014;2024-03-23T08:05:55;16.40;1.00
38456;DHT22;24237;50.106;20.014;2024-03-23T08:08:21;16.30;1.00
38456;DHT22;24237;50.106;20.014;2024-03-23T08:10:55;16.40;1.00
38456;DHT22;24237;50.106;20.014;2024-03-23T08:13:21;16.30;1.00
38456;DHT22;24237;50.106;20.014;2024-03-23T08:15:47;16.30;1.00
38456;DHT22;24237;50.106;20.014;2024-03-23T08:18:13;16.40;1.00
38456;DHT22;24237;50.106;20.014;2024-03-23T08:20:39;16.70;1.00
38456;DHT22;24237;50.106;20.014;2024-03-23T08:23:08;16.80;1.00
38456;DHT22;24237;50.106;20.014;2024-03-23T08:25:34;16.70;1.00
38456;DHT22;24237;50.106;20.014;2024-03-23T08:28:00;16.50;1.00
38456;DHT22;24237;50.106;20.014;2024-03-23T08:30:26;16.60;1.00
38456;DHT22;24237;50.106;20.014;2024-03-23T08:32:52;16.80;1.00
38456;DHT22;24237;50.106;20.014;2024-03-23T08:35:18;17.00;99.90
38456;DHT22;24237;50.106;20.014;2024-03-23T08:37:43;16.90;99.90
38456;DHT22;24237;50.106;20.014;2024-03-23T08:40:09;16.90;99.90
38456;DHT22;24237;50.106;20.014;2024-03-23T08:42:35;17.30;99.90
38456;DHT22;24237;50.106;20.014;2024-03-23T08:45:01;17.40;99.90
38456;DHT22;24237;50.106;20.014;2024-03-23T08:47:26;17.50;84.20
38456;DHT22;24237;50.106;20.014;2024-03-23T08:49:52;17.50;19.70
38456;DHT22;24237;50.106;20.014;2024-03-23T08:52:18;17.10;10.40
38456;DHT22;24237;50.106;20.014;2024-03-23T08:54:43;17.10;1.00
38456;DHT22;24237;50.106;20.014;2024-03-23T08:57:09;17.00;1.00
38456;DHT22;24237;50.106;20.014;2024-03-23T08:59:35;17.10;1.00
38456;DHT22;24237;50.106;20.014;2024-03-23T09:02:00;17.20;1.00
38456;DHT22;24237;50.106;20.014;2024-03-23T09:04:26;17.30;1.00
38456;DHT22;24237;50.106;20.014;2024-03-23T09:06:52;17.60;1.00
38456;DHT22;24237;50.106;20.014;2024-03-23T09:09:17;17.50;1.00
38456;DHT22;24237;50.106;20.014;2024-03-23T09:11:43;17.80;1.00
38456;DHT22;24237;50.106;20.014;2024-03-23T09:14:09;18.10;99.90
38456;DHT22;24237;50.106;20.014;2024-03-23T09:16:34;18.40;99.90
38456;DHT22;24237;50.106;20.014;2024-03-23T09:19:00;18.50;99.90
38456;DHT22;24237;50.106;20.014;2024-03-23T09:21:26;18.70;99.90
38456;DHT22;24237;50.106;20.014;2024-03-23T09:23:52;19.10;83.40
38456;DHT22;24237;50.106;20.014;2024-03-23T09:26:17;19.20;1.00
38456;DHT22;24237;50.106;20.014;2024-03-23T09:28:43;19.20;1.00
38456;DHT22;24237;50.106;20.014;2024-03-23T09:31:09;19.20;1.00
38456;DHT22;24237;50.106;20.014;2024-03-23T09:33:39;19.50;1.00
38456;DHT22;24237;50.106;20.014;2024-03-23T09:36:06;19.50;99.90
38456;DHT22;24237;50.106;20.014;2024-03-23T09:38:32;19.10;99.90
38456;DHT22;24237;50.106;20.014;2024-03-23T09:40:58;19.70;99.90
38456;DHT22;24237;50.106;20.014;2024-03-23T09:43:24;19.70;99.90
38456;DHT22;24237;50.106;20.014;2024-03-23T09:45:50;19.50;99.90
38456;DHT22;24237;50.106;20.014;2024-03-23T09:48:17;19.40;99.90
38456;DHT22;24237;50.106;20.014;2024-03-23T09:50:44;19.40;99.90
38456;DHT22;24237;50.106;20.014;2024-03-23T09:53:13;19.80;99.90
38456;DHT22;24237;50.106;20.014;2024-03-23T09:55:40;19.90;99.90
38456;DHT22;24237;50.106;20.014;2024-03-23T09:58:06;19.90;99.90
38456;DHT22;24237;50.106;20.014;2024-03-23T10:00:33;19.90;99.90
38456;DHT22;24237;50.106;20.014;2024-03-23T10:02:59;20.00;99.90
38456;DHT22;24237;50.106;20.014;2024-03-23T10:05:28;20.10;99.90
38456;DHT22;24237;50.106;20.014;2024-03-23T10:07:54;20.40;99.90
38456;DHT22;24237;50.106;20.014;2024-03-23T10:10:20;20.20;99.90
38456;DHT22;24237;50.106;20.014;2024-03-23T10:12:47;20.30;99.90
38456;DHT22;24237;50.106;20.014;2024-03-23T10:15:25;20.30;88.80
38456;DHT22;24237;50.106;20.014;2024-03-23T10:17:51;20.30;83.50
38456;DHT22;24237;50.106;20.014;2024-03-23T10:20:21;20.50;74.70
38456;DHT22;24237;50.106;20.014;2024-03-23T10:22:50;20.40;58.80
38456;DHT22;24237;50.106;20.014;2024-03-23T10:25:17;20.50;26.40
38456;DHT22;24237;50.106;20.014;2024-03-23T10:27:43;20.70;19.20
38456;DHT22;24237;50.106;20.014;2024-03-23T10:30:13;20.50;1.00
38456;DHT22;24237;50.106;20.014;2024-03-23T10:32:43;20.40;1.00
38456;DHT22;24237;50.106;20.014;2024-03-23T10:35:20;20.30;1.00
38456;DHT22;24237;50.106;20.014;2024-03-23T10:37:51;20.50;1.00
38456;DHT22;24237;50.106;20.014;2024-03-23T10:40:16;20.80;1.00
38456;DHT22;24237;50.106;20.014;2024-03-23T10:42:44;20.80;1.00
38456;DHT22;24237;50.106;20.014;2024-03-23T10:45:10;20.80;1.00
38456;DHT22;24237;50.106;20.014;2024-03-23T10:47:37;20.90;1.00
38456;DHT22;24237;50.106;20.014;2024-03-23T10:50:07;21.00;1.00
38456;DHT22;24237;50.106;20.014;2024-03-23T10:52:33;21.20;1.00
38456;DHT22;24237;50.106;20.014;2024-03-23T10:55:02;21.70;1.00
38456;DHT22;24237;50.106;20.014;2024-03-23T10:57:36;21.90;1.00
38456;DHT22;24237;50.106;20.014;2024-03-23T11:00:03;22.00;99.90
38456;DHT22;24237;50.106;20.014;2024-03-23T11:02:29;22.10;99.90
38456;DHT22;24237;50.106;20.014;2024-03-23T11:04:55;22.00;99.90
38456;DHT22;24237;50.106;20.014;2024-03-23T11:07:29;21.80;99.90
38456;DHT22;24237;50.106;20.014;2024-03-23T11:09:56;22.00;99.90
38456;DHT22;24237;50.106;20.014;2024-03-23T11:15:11;22.20;99.90
38456;DHT22;24237;50.106;20.014;2024-03-23T11:17:37;22.20;99.90
38456;DHT22;24237;50.106;20.014;2024-03-23T11:20:05;22.10;99.90
38456;DHT22;24237;50.106;20.014;2024-03-23T11:25:24;22.30;99.90
38456;DHT22;24237;50.106;20.014;2024-03-23T11:27:54;22.90;99.90
38456;DHT22;24237;50.106;20.014;2024-03-23T11:30:25;22.80;99.90
38456;DHT22;24237;50.106;20.014;2024-03-23T11:32:53;22.90;99.90
38456;DHT22;24237;50.106;20.014;2024-03-23T11:35:33;23.10;99.90
38456;DHT22;24237;50.106;20.014;2024-03-23T11:38:05;23.20;99.90
38456;DHT22;24237;50.106;20.014;2024-03-23T11:40:32;23.50;99.90
38456;DHT22;24237;50.106;20.014;2024-03-23T11:42:59;23.40;99.90
38456;DHT22;24237;50.106;20.014;2024-03-23T11:45:25;23.20;99.90
38456;DHT22;24237;50.106;20.014;2024-03-23T11:48:13;23.30;99.90
38456;DHT22;24237;50.106;20.014;2024-03-23T11:50:41;22.90;99.90
38456;DHT22;24237;50.106;20.014;2024-03-23T11:53:08;22.70;99.90
38456;DHT22;24237;50.106;20.014;2024-03-23T11:58:10;22.50;99.90
38456;DHT22;24237;50.106;20.014;2024-03-23T12:00:37;22.60;99.90
38456;DHT22;24237;50.106;20.014;2024-03-23T12:03:03;22.90;99.90
38456;DHT22;24237;50.106;20.014;2024-03-23T12:05:29;22.60;99.90
38456;DHT22;24237;50.106;20.014;2024-03-23T12:08:14;22.50;99.90
38456;DHT22;24237;50.106;20.014;2024-03-23T12:10:40;22.20;99.90
38456;DHT22;24237;50.106;20.014;2024-03-23T12:13:06;22.30;99.90
38456;DHT22;24237;50.106;20.014;2024-03-23T12:15:31;22.20;99.90
38456;DHT22;24237;50.106;20.014;2024-03-23T12:18:07;22.40;99.90
38456;DHT22;24237;50.106;20.014;2024-03-23T12:20:33;23.00;99.90
38456;DHT22;24237;50.106;20.014;2024-03-23T12:23:08;23.50;99.90
38456;DHT22;24237;50.106;20.014;2024-03-23T12:25:35;24.00;99.90
38456;DHT22;24237;50.106;20.014;2024-03-23T12:28:01;24.40;99.90
38456;DHT22;24237;50.106;20.014;2024-03-23T12:30:27;24.60;99.90
38456;DHT22;24237;50.106;20.014;2024-03-23T12:32:53;25.20;99.90
38456;DHT22;24237;50.106;20.014;2024-03-23T12:35:18;25.90;99.90
38456;DHT22;24237;50.106;20.014;2024-03-23T12:37:44;26.50;99.90
38456;DHT22;24237;50.106;20.014;2024-03-23T12:40:10;27.00;99.90
38456;DHT22;24237;50.106;20.014;2024-03-23T12:42:36;27.60;99.90
38456;DHT22;24237;50.106;20.014;2024-03-23T12:45:02;27.90;99.90
38456;DHT22;24237;50.106;20.014;2024-03-23T12:47:30;27.40;99.90
38456;DHT22;24237;50.106;20.014;2024-03-23T12:49:56;27.10;99.90
38456;DHT22;24237;50.106;20.014;2024-03-23T12:52:21;27.10;99.90
38456;DHT22;24237;50.106;20.014;2024-03-23T12:54:49;27.30;99.90
38456;DHT22;24237;50.106;20.014;2024-03-23T12:57:15;28.10;99.90
38456;DHT22;24237;50.106;20.014;2024-03-23T12:59:40;28.50;99.90
38456;DHT22;24237;50.106;20.014;2024-03-23T13:02:06;29.30;99.90
38456;DHT22;24237;50.106;20.014;2024-03-23T13:04:34;29.60;99.90
38456;DHT22;24237;50.106;20.014;2024-03-23T13:06:59;29.60;99.90
38456;DHT22;24237;50.106;20.014;2024-03-23T13:09:25;29.90;99.80
38456;DHT22;24237;50.106;20.014;2024-03-23T13:11:51;30.40;98.00
38456;DHT22;24237;50.106;20.014;2024-03-23T13:14:16;30.60;94.30
38456;DHT22;24237;50.106;20.014;2024-03-23T13:16:42;30.50;93.30
38456;DHT22;24237;50.106;20.014;2024-03-23T13:19:08;30.40;91.50
38456;DHT22;24237;50.106;20.014;2024-03-23T13:21:33;30.00;86.70
38456;DHT22;24237;50.106;20.014;2024-03-23T13:23:59;30.40;89.50
38456;DHT22;24237;50.106;20.014;2024-03-23T13:26:24;30.70;87.60
38456;DHT22;24237;50.106;20.014;2024-03-23T13:28:50;30.50;75.80
38456;DHT22;24237;50.106;20.014;2024-03-23T13:31:16;29.70;72.60
38456;DHT22;24237;50.106;20.014;2024-03-23T13:33:41;29.80;75.80
38456;DHT22;24237;50.106;20.014;2024-03-23T13:36:09;29.80;71.50
38456;DHT22;24237;50.106;20.014;2024-03-23T13:38:35;29.30;66.80
38456;DHT22;24237;50.106;20.014;2024-03-23T13:41:00;29.10;65.00
38456;DHT22;24237;50.106;20.014;2024-03-23T13:43:27;28.80;64.00
38456;DHT22;24237;50.106;20.014;2024-03-23T13:45:55;27.70;60.10
38456;DHT22;24237;50.106;20.014;2024-03-23T13:48:25;28.20;62.90
38456;DHT22;24237;50.106;20.014;2024-03-23T13:51:01;29.30;73.10
38456;DHT22;24237;50.106;20.014;2024-03-23T13:53:27;29.90;69.90
38456;DHT22;24237;50.106;20.014;2024-03-23T13:55:53;29.40;70.40
38456;DHT22;24237;50.106;20.014;2024-03-23T13:58:19;28.50;65.20
38456;DHT22;24237;50.106;20.014;2024-03-23T14:00:45;27.40;62.30
38456;DHT22;24237;50.106;20.014;2024-03-23T14:03:11;26.90;62.50
38456;DHT22;24237;50.106;20.014;2024-03-23T14:05:37;25.90;57.60
38456;DHT22;24237;50.106;20.014;2024-03-23T14:08:09;25.20;54.10
38456;DHT22;24237;50.106;20.014;2024-03-23T14:10:36;24.70;55.90
38456;DHT22;24237;50.106;20.014;2024-03-23T14:13:02;24.40;55.90
38456;DHT22;24237;50.106;20.014;2024-03-23T14:15:29;24.20;56.20
38456;DHT22;24237;50.106;20.014;2024-03-23T14:17:56;23.90;58.30
38456;DHT22;24237;50.106;20.014;2024-03-23T14:20:22;23.80;50.50
38456;DHT22;24237;50.106;20.014;2024-03-23T14:22:49;23.10;48.40
38456;DHT22;24237;50.106;20.014;2024-03-23T14:25:15;22.50;45.10
38456;DHT22;24237;50.106;20.014;2024-03-23T14:27:41;22.20;44.40
38456;DHT22;24237;50.106;20.014;2024-03-23T14:30:07;22.00;43.90
38456;DHT22;24237;50.106;20.014;2024-03-23T14:32:34;22.10;41.60
38456;DHT22;24237;50.106;20.014;2024-03-23T14:35:03;22.10;41.20
38456;DHT22;24237;50.106;20.014;2024-03-23T14:37:29;21.90;37.60
38456;DHT22;24237;50.106;20.014;2024-03-23T14:39:58;21.70;38.40
38456;DHT22;24237;50.106;20.014;2024-03-23T14:42:24;21.70;41.20
38456;DHT22;24237;50.106;20.014;2024-03-23T14:44:53;21.50;42.10
38456;DHT22;24237;50.106;20.014;2024-03-23T14:47:19;21.00;45.60
38456;DHT22;24237;50.106;20.014;2024-03-23T14:49:46;19.10;99.90
38456;DHT22;24237;50.106;20.014;2024-03-23T14:52:16;16.40;99.90
38456;DHT22;24237;50.106;20.014;2024-03-23T14:54:42;14.40;99.90
38456;DHT22;24237;50.106;20.014;2024-03-23T14:57:07;13.60;1.00
38456;DHT22;24237;50.106;20.014;2024-03-23T14:59:36;13.20;6.50
38456;DHT22;24237;50.106;20.014;2024-03-23T15:02:06;12.90;99.90
38456;DHT22;24237;50.106;20.014;2024-03-23T15:04:32;12.80;99.90
38456;DHT22;24237;50.106;20.014;2024-03-23T15:06:58;12.90;99.90
38456;DHT22;24237;50.106;20.014;2024-03-23T15:09:24;12.90;99.90
38456;DHT22;24237;50.106;20.014;2024-03-23T15:11:49;13.00;1.00
38456;DHT22;24237;50.106;20.014;2024-03-23T15:14:15;13.10;99.90
38456;DHT22;24237;50.106;20.014;2024-03-23T15:16:41;13.10;99.90
38456;DHT22;24237;50.106;20.014;2024-03-23T15:19:08;13.00;68.50
38456;DHT22;24237;50.106;20.014;2024-03-23T15:21:34;13.10;1.00
38456;DHT22;24237;50.106;20.014;2024-03-23T15:23:59;12.90;1.00
38456;DHT22;24237;50.106;20.014;2024-03-23T15:26:25;12.90;1.00
38456;DHT22;24237;50.106;20.014;2024-03-23T15:28:51;12.90;99.90
38456;DHT22;24237;50.106;20.014;2024-03-23T15:31:22;12.90;1.00
38456;DHT22;24237;50.106;20.014;2024-03-23T15:33:48;12.90;99.90
38456;DHT22;24237;50.106;20.014;2024-03-23T15:36:14;12.90;26.10
38456;DHT22;24237;50.106;20.014;2024-03-23T15:38:40;13.10;1.00
38456;DHT22;24237;50.106;20.014;2024-03-23T15:41:05;13.30;99.90
38456;DHT22;24237;50.106;20.014;2024-03-23T15:43:31;13.30;99.90
38456;DHT22;24237;50.106;20.014;2024-03-23T15:46:02;13.30;1.00
38456;DHT22;24237;50.106;20.014;2024-03-23T15:48:28;13.30;99.90
38456;DHT22;24237;50.106;20.014;2024-03-23T15:50:56;13.10;1.00
38456;DHT22;24237;50.106;20.014;2024-03-23T15:53:23;12.90;99.90
38456;DHT22;24237;50.106;20.014;2024-03-23T15:55:59;13.00;99.90
38456;DHT22;24237;50.106;20.014;2024-03-23T15:58:25;12.90;99.90
38456;DHT22;24237;50.106;20.014;2024-03-23T16:03:23;12.80;99.90
38456;DHT22;24237;50.106;20.014;2024-03-23T16:05:55;12.60;1.00
38456;DHT22;24237;50.106;20.014;2024-03-23T16:08:22;12.70;1.00
38456;DHT22;24237;50.106;20.014;2024-03-23T16:10:47;12.70;1.00
38456;DHT22;24237;50.106;20.014;2024-03-23T16:13:13;12.80;1.00
38456;DHT22;24237;50.106;20.014;2024-03-23T16:15:39;12.70;1.00
38456;DHT22;24237;50.106;20.014;2024-03-23T16:18:05;12.60;1.00
38456;DHT22;24237;50.106;20.014;2024-03-23T16:20:31;12.80;1.00
38456;DHT22;24237;50.106;20.014;2024-03-23T16:22:59;13.10;1.00